Braives, Belgium
Current Conditions -  °F | °C
As of 1:50 AM on Sunday 28 Dec 2014 (Local Time) from EBLG Reporting Station
Scattered Clouds Scattered Clouds  
Wind Chill: 15°   Ceiling: Unl
Heat Index: 28°   Visibility: 6mi
Dew Point: 21°   Wind: 20mph
Humidity: 74%   Direction: 40°NE
Pressure: 29.74"   Gusts: NA
Location:  50.62°N, 5.13°E
Report Text: EBLG 280050Z 04017KT 9999 FEW008 SCT026 M02/M06 Q1007 R05/550528 NOSIG
Loading
Personal Weather Stations






























Interactive Weather Map New forecast layout! Learn more

10-Day Weather Forecast

Advertisements
Track Severe Weather on mobile